Alba, TX

3:53 AM CST on December 27, 2014 (GMT -0600)
Brook Harbor, Lake Fork | Change Station
CLOSE
Current Station
Personal Weather Station
Location: Yantis, TX
Elevation: 412 ft
Nearby Weather Stations

Elev 412 ft 32.89 °N, 95.53 °W | Updated 0 second ago

Fog
Fog
59.8 °F
Feels Like 59.8 °F
N
0.0
Wind Variable Wind from SE
Gusts 1.0 mph

Today
High -- | Low -- °F
--% Chance of Precip.
Yesterday
High -- | Low -- °F
Precip. -- in
7:23 AM 5:23 PM
Waxing Crescent, 35% visible
Pressure 30.01 in
Visibility 1.0 miles
Clouds Overcast 100 ft
Dew Point 59 °F
Humidity 96%
Rainfall 0.00 in
Snow Depth Not available.
UV 0 out of 12
Pollen 10.50 out of 12
Air Quality Not available.
Flu Activity Not available.
METAR KJDD 270935Z AUTO 00000KT 1SM BR OVC001 16/16 A3001 RMK AO2

More Conditions Fewer Conditions

Pressure 30.01 in
Visibility 1.0 miles
Clouds Overcast 100 ft
Dew Point 59 °F
Humidity 96%
Rainfall 0.00 in
Snow Depth Not available.
UV 0 out of 12
Pollen 10.50 out of 12
Air Quality Not available.
Flu Activity Not available.
METAR KJDD 270935Z AUTO 00000KT 1SM BR OVC001 16/16 A3001 RMK AO2

More Conditions Fewer Conditions

10-Day Weather Forecast

Almanac

Astronomy

Dec. 27, 2014 Rise Set
Actual Time
Civil Twilight
Nautical Twilight
Astronomical Twilight
Moon
Length of Visible Light
Length of Day
Tomorrow will be .
, % of the Moon is Illuminated

Today's Extremes

State Highs State Lows

Community

WunderPhotos

Upload Photos

1,780,869 photos uploaded!

WunderBlogs® & News

Nearby

Air Quality

  Air Quality AQ Index Pollutant
Not available.

Snow Depth

Station Depth Elevation

Earthquake Activity

City Distance Mag. Time & Date
Minimum magnitude displayed is 2.5.

Coastal Water Temperatures

Place Temperature

Nearby Weather Stations